Time;durP1;ratioP1;P1;durP2;ratioP2;P2;SDS_P1;SDS_P2;PMS_P1;PMS_P2;Temp;Humidity;BMP_temperature;BMP_pressure;BME280_temperature;BME280_humidity;BME280_pressure;Samples;Min_cycle;Max_cycle;Signal;HPM_P1;HPM_P2
2023/12/15 00:00:24;;;;;;;;;1.00;0.00;;;;;;;;5098519;27;45623;-76
2023/12/15 00:02:50;;;;;;;;;0.00;0.00;;;;;;;;5099094;27;45487;-76
2023/12/15 00:05:15;;;;;;;;;0.33;0.00;;;;;;;;5095570;27;45552;-76
2023/12/15 00:07:40;;;;;;;;;0.33;0.00;;;;;;;;5098262;27;45450;-75
2023/12/15 00:10:06;;;;;;;;;1.00;1.00;;;;;;;;5098302;27;45473;-75
2023/12/15 00:12:32;;;;;;;;;0.00;0.00;;;;;;;;5098295;27;45997;-77
2023/12/15 00:14:57;;;;;;;;;0.00;0.00;;;;;;;;5098032;27;46007;-76
2023/12/15 00:17:22;;;;;;;;;0.00;0.00;;;;;;;;5098029;27;45538;-74
2023/12/15 00:19:48;;;;;;;;;0.00;0.00;;;;;;;;5098585;27;45509;-76
2023/12/15 00:22:13;;;;;;;;;0.00;0.00;;;;;;;;5096896;27;45556;-77
2023/12/15 00:24:39;;;;;;;;;0.00;0.00;;;;;;;;5098652;27;46161;-76
2023/12/15 00:27:04;;;;;;;;;0.00;0.00;;;;;;;;5098910;27;45419;-76
2023/12/15 00:29:29;;;;;;;;;1.00;0.00;;;;;;;;5098819;27;45520;-76
2023/12/15 00:31:55;;;;;;;;;0.00;0.00;;;;;;;;5097882;27;45555;-76
2023/12/15 00:34:20;;;;;;;;;0.67;0.00;;;;;;;;5098783;27;45424;-76
2023/12/15 00:36:45;;;;;;;;;0.00;0.00;;;;;;;;5098522;27;45427;-76
2023/12/15 00:39:11;;;;;;;;;0.00;0.00;;;;;;;;5098778;27;45866;-76
2023/12/15 00:41:36;;;;;;;;;0.00;0.00;;;;;;;;5098758;27;45230;-76
2023/12/15 00:44:02;;;;;;;;;0.00;0.00;;;;;;;;5098356;27;46633;-76
2023/12/15 00:46:28;;;;;;;;;0.00;0.00;;;;;;;;5098597;27;45294;-76
2023/12/15 00:48:53;;;;;;;;;2.67;1.67;;;;;;;;5098227;27;46105;-76
2023/12/15 00:51:18;;;;;;;;;0.00;0.00;;;;;;;;5098487;27;45270;-76
2023/12/15 00:53:44;;;;;;;;;0.00;0.00;;;;;;;;5098221;27;46173;-76
2023/12/15 00:56:09;;;;;;;;;1.00;0.67;;;;;;;;5098233;27;45221;-77
2023/12/15 00:58:35;;;;;;;;;0.33;0.00;;;;;;;;5097041;27;45460;-76
2023/12/15 01:01:00;;;;;;;;;0.00;0.00;;;;;;;;5098547;27;45434;-76
2023/12/15 01:03:26;;;;;;;;;0.00;0.00;;;;;;;;5098167;27;45551;-76
2023/12/15 01:05:51;;;;;;;;;0.00;0.00;;;;;;;;5098368;27;45218;-76
2023/12/15 01:08:16;;;;;;;;;0.00;0.00;;;;;;;;5098093;27;45575;-76
2023/12/15 01:10:42;;;;;;;;;0.00;0.00;;;;;;;;5098363;27;45327;-76
2023/12/15 01:13:07;;;;;;;;;0.00;0.00;;;;;;;;5098075;27;46148;-76
2023/12/15 01:15:33;;;;;;;;;0.00;0.00;;;;;;;;5097912;27;45549;-76
2023/12/15 01:17:58;;;;;;;;;0.00;0.00;;;;;;;;5098197;27;45506;-76
2023/12/15 01:20:23;;;;;;;;;0.00;0.00;;;;;;;;5098606;27;45305;-76
2023/12/15 01:22:49;;;;;;;;;0.00;0.00;;;;;;;;5097951;27;45582;-76
2023/12/15 01:25:14;;;;;;;;;0.00;0.00;;;;;;;;5097981;27;45711;-76
2023/12/15 01:27:40;;;;;;;;;0.00;0.00;;;;;;;;5098080;27;45476;-76
2023/12/15 01:30:05;;;;;;;;;0.00;0.00;;;;;;;;5098149;27;45573;-76
2023/12/15 01:32:31;;;;;;;;;0.00;0.00;;;;;;;;5097746;27;46862;-76
2023/12/15 01:34:56;;;;;;;;;0.00;0.00;;;;;;;;5097755;27;45375;-76
2023/12/15 01:37:22;;;;;;;;;0.00;0.00;;;;;;;;5098071;27;45456;-76
2023/12/15 01:39:47;;;;;;;;;0.00;0.00;;;;;;;;5098068;27;45217;-76
2023/12/15 01:42:12;;;;;;;;;0.00;0.00;;;;;;;;5097597;27;45469;-76
2023/12/15 01:44:39;;;;;;;;;0.00;0.00;;;;;;;;5097783;27;45508;-76
2023/12/15 01:47:04;;;;;;;;;0.00;0.00;;;;;;;;5097622;27;45305;-76
2023/12/15 01:49:30;;;;;;;;;0.00;0.00;;;;;;;;5097807;27;45462;-77
2023/12/15 01:51:55;;;;;;;;;0.00;0.00;;;;;;;;5097803;27;46194;-76
2023/12/15 01:54:20;;;;;;;;;0.00;0.00;;;;;;;;5097426;27;45494;-76
2023/12/15 01:56:46;;;;;;;;;0.00;0.00;;;;;;;;5097828;27;45224;-76
2023/12/15 01:59:11;;;;;;;;;0.00;0.00;;;;;;;;5097788;27;45213;-76
2023/12/15 02:01:37;;;;;;;;;0.00;0.00;;;;;;;;5098591;27;45325;-75
2023/12/15 02:04:02;;;;;;;;;0.00;0.00;;;;;;;;5100704;27;45403;-76
2023/12/15 02:06:27;;;;;;;;;0.00;0.00;;;;;;;;5100920;27;45336;-76
2023/12/15 02:08:53;;;;;;;;;0.00;0.00;;;;;;;;5101074;27;45499;-76
2023/12/15 02:11:18;;;;;;;;;0.00;0.00;;;;;;;;5100476;27;45356;-76
2023/12/15 02:13:43;;;;;;;;;0.00;0.00;;;;;;;;5100849;27;45552;-76
2023/12/15 02:16:09;;;;;;;;;0.00;0.00;;;;;;;;5101037;27;45404;-76
2023/12/15 02:18:35;;;;;;;;;0.00;0.00;;;;;;;;5079721;27;45345;-75
2023/12/15 02:21:00;;;;;;;;;0.00;0.00;;;;;;;;5080070;27;45983;-76
2023/12/15 02:23:25;;;;;;;;;0.00;0.00;;;;;;;;5080718;27;45306;-76
2023/12/15 02:25:51;;;;;;;;;0.00;0.00;;;;;;;;5080507;27;45723;-76
2023/12/15 02:28:16;;;;;;;;;0.00;0.00;;;;;;;;5080639;27;45205;-76
2023/12/15 02:30:42;;;;;;;;;0.00;0.00;;;;;;;;5080151;27;46173;-76
2023/12/15 02:33:07;;;;;;;;;0.00;0.00;;;;;;;;5080092;27;45449;-76
2023/12/15 02:35:32;;;;;;;;;0.00;0.00;;;;;;;;5080114;27;45328;-76
2023/12/15 02:37:58;;;;;;;;;0.00;0.00;;;;;;;;5080674;27;45271;-76
2023/12/15 02:40:23;;;;;;;;;0.00;0.00;;;;;;;;5080065;27;45887;-77
2023/12/15 02:42:48;;;;;;;;;0.00;0.00;;;;;;;;5079969;27;45503;-77
2023/12/15 02:45:14;;;;;;;;;0.00;0.00;;;;;;;;5080063;28;45524;-76
2023/12/15 02:47:39;;;;;;;;;0.00;0.00;;;;;;;;5080338;27;45290;-76
2023/12/15 02:50:05;;;;;;;;;0.00;0.00;;;;;;;;5079828;27;46072;-76
2023/12/15 02:52:30;;;;;;;;;0.00;0.00;;;;;;;;5079712;27;45487;-76
2023/12/15 02:54:56;;;;;;;;;0.00;0.00;;;;;;;;5080343;27;45153;-76
2023/12/15 02:57:21;;;;;;;;;0.00;0.00;;;;;;;;5080127;27;45331;-76
2023/12/15 02:59:46;;;;;;;;;0.00;0.00;;;;;;;;5079762;27;45359;-76
2023/12/15 03:02:12;;;;;;;;;0.00;0.00;;;;;;;;5079671;27;45464;-76
2023/12/15 03:04:37;;;;;;;;;0.00;0.00;;;;;;;;5079794;27;45642;-76
2023/12/15 03:07:02;;;;;;;;;0.00;0.00;;;;;;;;5080013;27;45442;-76
2023/12/15 03:09:28;;;;;;;;;0.00;0.00;;;;;;;;5079911;27;46159;-76
2023/12/15 03:11:53;;;;;;;;;0.00;0.00;;;;;;;;5077544;28;45485;-76
2023/12/15 03:14:18;;;;;;;;;0.00;0.00;;;;;;;;5077899;28;45336;-76
2023/12/15 03:16:44;;;;;;;;;0.00;0.00;;;;;;;;5079820;27;45504;-76
2023/12/15 03:19:09;;;;;;;;;0.00;0.00;;;;;;;;5079386;27;45547;-76
2023/12/15 03:21:34;;;;;;;;;0.00;0.00;;;;;;;;5079392;27;45350;-76
2023/12/15 03:24:00;;;;;;;;;0.67;0.00;;;;;;;;5079731;27;45438;-76
2023/12/15 03:26:26;;;;;;;;;0.00;0.00;;;;;;;;5079719;27;45355;-76
2023/12/15 03:28:51;;;;;;;;;0.00;0.00;;;;;;;;5079274;27;45382;-76
2023/12/15 03:31:17;;;;;;;;;0.00;0.00;;;;;;;;5079340;27;45457;-76
2023/12/15 03:33:42;;;;;;;;;0.00;0.00;;;;;;;;5079378;27;45231;-76
2023/12/15 03:36:08;;;;;;;;;0.00;0.00;;;;;;;;5079424;27;45199;-76
2023/12/15 03:38:34;;;;;;;;;0.00;0.00;;;;;;;;5079024;27;45507;-76
2023/12/15 03:40:59;;;;;;;;;0.00;0.00;;;;;;;;5079508;27;45296;-76
2023/12/15 03:43:25;;;;;;;;;0.00;0.00;;;;;;;;5079308;27;45506;-76
2023/12/15 03:45:50;;;;;;;;;0.00;0.00;;;;;;;;5079382;27;45262;-76
2023/12/15 03:48:16;;;;;;;;;0.00;0.00;;;;;;;;5078764;27;46136;-77
2023/12/15 03:50:41;;;;;;;;;0.00;0.00;;;;;;;;5078912;27;45313;-76
2023/12/15 03:53:07;;;;;;;;;0.00;0.00;;;;;;;;5078949;27;45510;-76
2023/12/15 03:55:32;;;;;;;;;0.00;0.00;;;;;;;;5079551;28;45525;-76
2023/12/15 03:57:57;;;;;;;;;0.00;0.00;;;;;;;;5078781;27;45506;-76
2023/12/15 04:00:23;;;;;;;;;0.00;0.00;;;;;;;;5078774;27;45421;-75
2023/12/15 04:02:48;;;;;;;;;0.00;0.00;;;;;;;;5078858;27;45357;-74
2023/12/15 04:05:13;;;;;;;;;0.33;0.00;;;;;;;;5077521;28;45524;-74
2023/12/15 04:07:39;;;;;;;;;0.00;0.00;;;;;;;;5078723;27;45536;-75
2023/12/15 04:10:05;;;;;;;;;0.00;0.00;;;;;;;;5078958;27;45650;-75
2023/12/15 04:12:30;;;;;;;;;0.00;0.00;;;;;;;;5079061;28;45169;-75
2023/12/15 04:14:56;;;;;;;;;0.00;0.00;;;;;;;;5077409;28;45499;-76
2023/12/15 04:17:21;;;;;;;;;0.00;0.00;;;;;;;;5078313;27;45829;-74
2023/12/15 04:19:47;;;;;;;;;0.00;0.00;;;;;;;;5077083;28;45387;-74
2023/12/15 04:22:12;;;;;;;;;0.00;0.00;;;;;;;;5078663;27;45260;-75
2023/12/15 04:24:38;;;;;;;;;0.00;0.00;;;;;;;;5078484;27;45278;-75
2023/12/15 04:27:03;;;;;;;;;1.00;0.00;;;;;;;;5078306;27;46658;-74
2023/12/15 04:29:28;;;;;;;;;0.67;0.00;;;;;;;;5077031;28;45529;-74
2023/12/15 04:31:54;;;;;;;;;1.00;0.00;;;;;;;;5078600;27;45345;-74
2023/12/15 04:34:19;;;;;;;;;0.00;0.00;;;;;;;;5077252;28;45507;-74
2023/12/15 04:36:44;;;;;;;;;0.00;0.00;;;;;;;;5078103;27;46095;-74
2023/12/15 04:39:10;;;;;;;;;0.00;0.00;;;;;;;;5078130;27;45440;-74
2023/12/15 04:41:35;;;;;;;;;0.00;0.00;;;;;;;;5078620;27;45341;-74
2023/12/15 04:44:00;;;;;;;;;0.00;0.00;;;;;;;;5078436;27;45357;-74
2023/12/15 04:46:29;;;;;;;;;0.33;0.00;;;;;;;;5077948;27;45483;-74
2023/12/15 04:48:59;;;;;;;;;1.00;0.00;;;;;;;;5078034;27;45484;-74
2023/12/15 04:51:24;;;;;;;;;0.00;0.00;;;;;;;;5078009;28;45507;-74
2023/12/15 04:53:50;;;;;;;;;0.00;0.00;;;;;;;;5078045;28;45365;-74
2023/12/15 04:56:16;;;;;;;;;0.00;0.00;;;;;;;;5077799;27;46039;-74
2023/12/15 04:58:42;;;;;;;;;0.00;0.00;;;;;;;;5077862;27;45307;-74
2023/12/15 05:01:12;;;;;;;;;0.00;0.00;;;;;;;;5078309;27;45247;-74
2023/12/15 05:03:38;;;;;;;;;1.00;0.00;;;;;;;;5078032;27;45500;-74
2023/12/15 05:06:03;;;;;;;;;0.00;0.00;;;;;;;;5077849;27;46103;-74
2023/12/15 05:08:29;;;;;;;;;0.00;0.00;;;;;;;;5077553;27;45466;-74
2023/12/15 05:10:54;;;;;;;;;0.00;0.00;;;;;;;;5077927;27;45436;-74
2023/12/15 05:13:19;;;;;;;;;0.00;0.00;;;;;;;;5077943;27;45280;-75
2023/12/15 05:15:45;;;;;;;;;0.00;0.00;;;;;;;;5077589;27;45437;-75
2023/12/15 05:18:10;;;;;;;;;0.00;0.00;;;;;;;;5077501;27;45247;-75
2023/12/15 05:20:38;;;;;;;;;1.00;1.00;;;;;;;;5076635;28;45460;-74
2023/12/15 05:23:04;;;;;;;;;0.00;0.00;;;;;;;;5078127;27;45341;-74
2023/12/15 05:25:29;;;;;;;;;0.00;0.00;;;;;;;;5077342;27;45974;-74
2023/12/15 05:27:55;;;;;;;;;0.00;0.00;;;;;;;;5077582;27;45503;-75
2023/12/15 05:30:20;;;;;;;;;0.00;0.00;;;;;;;;5077592;27;45533;-74
2023/12/15 05:32:46;;;;;;;;;0.00;0.00;;;;;;;;5077799;27;45363;-75
2023/12/15 05:35:11;;;;;;;;;0.33;0.00;;;;;;;;5076125;28;45666;-75
2023/12/15 05:37:36;;;;;;;;;0.00;0.00;;;;;;;;5080054;28;45321;-75
2023/12/15 05:40:02;;;;;;;;;0.00;0.00;;;;;;;;5081337;27;45261;-74
2023/12/15 05:42:27;;;;;;;;;0.00;0.00;;;;;;;;5080054;28;45310;-74
2023/12/15 05:44:52;;;;;;;;;0.00;0.00;;;;;;;;5080866;27;45856;-74
2023/12/15 05:47:18;;;;;;;;;0.00;0.00;;;;;;;;5080944;27;45387;-75
2023/12/15 05:49:43;;;;;;;;;2.00;0.00;;;;;;;;5081164;27;45294;-75
2023/12/15 05:52:09;;;;;;;;;0.00;0.00;;;;;;;;5081372;27;45613;-74
2023/12/15 05:54:35;;;;;;;;;0.00;0.00;;;;;;;;5080488;27;46035;-74
2023/12/15 05:57:00;;;;;;;;;0.00;0.00;;;;;;;;5080592;27;45188;-74
2023/12/15 05:59:25;;;;;;;;;0.00;0.00;;;;;;;;5080961;27;45444;-74
2023/12/15 06:01:51;;;;;;;;;0.67;0.00;;;;;;;;5081162;27;45265;-74
2023/12/15 06:04:16;;;;;;;;;0.00;0.00;;;;;;;;5082491;27;46355;-73
2023/12/15 06:06:42;;;;;;;;;0.00;0.00;;;;;;;;5101090;27;45336;-73
2023/12/15 06:09:09;;;;;;;;;0.00;0.00;;;;;;;;5101357;27;45556;-73
2023/12/15 06:11:43;;;;;;;;;1.33;0.00;;;;;;;;5101316;27;45408;-73
2023/12/15 06:14:09;;;;;;;;;0.00;0.00;;;;;;;;5100893;27;45988;-74
2023/12/15 06:16:35;;;;;;;;;0.00;0.00;;;;;;;;5100561;27;45313;-73
2023/12/15 06:19:01;;;;;;;;;0.00;0.00;;;;;;;;5100631;27;45564;-73
2023/12/15 06:21:26;;;;;;;;;0.00;0.00;;;;;;;;5100647;27;45484;-74
2023/12/15 06:23:52;;;;;;;;;6.33;6.33;;;;;;;;5100303;27;45358;-73
2023/12/15 06:26:18;;;;;;;;;2.00;2.00;;;;;;;;5100559;27;45285;-74
2023/12/15 06:28:44;;;;;;;;;0.00;0.00;;;;;;;;5100446;27;45274;-74
2023/12/15 06:31:09;;;;;;;;;0.00;0.00;;;;;;;;5100854;27;45360;-74
2023/12/15 06:33:35;;;;;;;;;0.00;0.00;;;;;;;;5100091;27;45495;-73
2023/12/15 06:36:00;;;;;;;;;0.33;0.33;;;;;;;;5098981;27;45393;-73
2023/12/15 06:38:25;;;;;;;;;0.33;0.33;;;;;;;;5100547;27;45555;-73
2023/12/15 06:40:51;;;;;;;;;1.00;1.00;;;;;;;;5099300;27;45437;-73
2023/12/15 06:43:16;;;;;;;;;1.00;0.00;;;;;;;;5100207;27;46534;-74
2023/12/15 06:45:41;;;;;;;;;0.00;0.00;;;;;;;;5100529;27;45417;-73
2023/12/15 06:48:07;;;;;;;;;1.00;0.00;;;;;;;;5100281;27;45458;-73
2023/12/15 06:50:33;;;;;;;;;0.00;0.00;;;;;;;;5100408;27;46288;-73
2023/12/15 06:52:58;;;;;;;;;0.00;0.00;;;;;;;;5099769;27;46304;-73
2023/12/15 06:55:24;;;;;;;;;1.00;0.00;;;;;;;;5100297;27;45399;-73
2023/12/15 06:57:49;;;;;;;;;0.00;0.00;;;;;;;;5100200;27;45376;-73
2023/12/15 07:00:15;;;;;;;;;0.00;0.00;;;;;;;;5100292;27;45477;-74
2023/12/15 07:02:41;;;;;;;;;0.00;0.00;;;;;;;;5100226;27;45449;-73
2023/12/15 07:05:06;;;;;;;;;31.00;30.00;;;;;;;;5099435;27;45451;-72
2023/12/15 07:07:32;;;;;;;;;3.00;3.00;;;;;;;;5100124;27;45466;-73
2023/12/15 07:09:58;;;;;;;;;3.00;3.00;;;;;;;;5100295;27;45387;-73
2023/12/15 07:12:23;;;;;;;;;2.00;1.33;;;;;;;;5099589;27;46100;-74
2023/12/15 07:14:48;;;;;;;;;0.00;0.00;;;;;;;;5099673;27;45405;-74
2023/12/15 07:17:14;;;;;;;;;1.00;0.00;;;;;;;;5099957;27;45306;-75
2023/12/15 07:19:39;;;;;;;;;1.00;0.00;;;;;;;;5099842;27;45298;-75
2023/12/15 07:22:05;;;;;;;;;4.67;4.00;;;;;;;;5099555;27;46158;-75
2023/12/15 07:24:30;;;;;;;;;1.00;0.67;;;;;;;;5099614;27;45371;-76
2023/12/15 07:26:56;;;;;;;;;1.00;1.00;;;;;;;;5099571;27;45508;-74
2023/12/15 07:29:22;;;;;;;;;3.00;2.33;;;;;;;;5099526;27;45439;-76
2023/12/15 07:31:50;;;;;;;;;3.33;3.00;;;;;;;;5099445;27;46116;-75
2023/12/15 07:34:15;;;;;;;;;5.00;4.00;;;;;;;;5099654;27;45280;-75
2023/12/15 07:36:41;;;;;;;;;4.33;4.00;;;;;;;;5099724;27;45645;-75
2023/12/15 07:39:07;;;;;;;;;1.00;1.00;;;;;;;;5099556;27;45518;-74
2023/12/15 07:41:32;;;;;;;;;2.00;2.00;;;;;;;;5097620;27;45602;-76
2023/12/15 07:43:58;;;;;;;;;2.00;1.00;;;;;;;;5098904;27;45594;-75
2023/12/15 07:46:24;;;;;;;;;6.00;4.00;;;;;;;;5099256;27;45442;-74
2023/12/15 07:48:50;;;;;;;;;4.33;4.00;;;;;;;;5099264;27;45411;-74
2023/12/15 07:51:19;;;;;;;;;12.50;10.25;;;;;;;;5099365;27;46227;-75
2023/12/15 07:53:46;;;;;;;;;8.00;6.00;;;;;;;;5099099;27;45451;-75
2023/12/15 07:56:24;;;;;;;;;1.00;1.00;;;;;;;;5099417;27;45781;-74
2023/12/15 07:58:53;;;;;;;;;4.00;4.00;;;;;;;;5098447;27;45318;-75
2023/12/15 08:01:20;;;;;;;;;6.00;6.00;;;;;;;;5098805;27;45467;-75
2023/12/15 08:03:46;;;;;;;;;13.25;12.25;;;;;;;;5098852;27;45498;-73
2023/12/15 08:06:12;;;;;;;;;16.50;14.25;;;;;;;;5099131;27;45403;-75
2023/12/15 08:08:38;;;;;;;;;13.75;11.50;;;;;;;;5099313;27;45452;-75
2023/12/15 08:11:04;;;;;;;;;12.00;11.25;;;;;;;;5098516;27;45427;-76
2023/12/15 08:13:30;;;;;;;;;13.00;10.25;;;;;;;;5098705;27;45344;-76
2023/12/15 08:15:55;;;;;;;;;5.00;4.00;;;;;;;;5098871;27;45681;-74
2023/12/15 08:18:20;;;;;;;;;2.00;2.00;;;;;;;;5099195;27;45772;-76
2023/12/15 08:20:47;;;;;;;;;3.33;3.00;;;;;;;;5098996;27;45448;-79
2023/12/15 08:23:13;;;;;;;;;3.00;2.00;;;;;;;;5099094;27;45316;-80
2023/12/15 08:25:38;;;;;;;;;3.00;3.00;;;;;;;;5098900;27;45430;-78
2023/12/15 08:28:04;;;;;;;;;4.00;4.00;;;;;;;;5098982;27;45334;-76
2023/12/15 08:30:29;;;;;;;;;4.00;4.00;;;;;;;;5098423;27;45359;-74
2023/12/15 08:32:55;;;;;;;;;81.25;66.00;;;;;;;;5098489;27;45250;-74
2023/12/15 08:35:20;;;;;;;;;69.75;54.50;;;;;;;;5098556;27;45354;-74
2023/12/15 08:37:46;;;;;;;;;72.25;55.75;;;;;;;;5098928;27;45919;-74
2023/12/15 08:40:11;;;;;;;;;24.00;22.75;;;;;;;;5098286;27;45247;-75
2023/12/15 08:42:36;;;;;;;;;46.75;39.50;;;;;;;;5098394;27;45320;-76
2023/12/15 08:45:02;;;;;;;;;43.75;37.50;;;;;;;;5098466;27;45285;-75
2023/12/15 08:47:27;;;;;;;;;29.00;27.50;;;;;;;;5098656;27;45242;-75
2023/12/15 08:49:53;;;;;;;;;20.00;18.50;;;;;;;;5098237;27;45233;-77
2023/12/15 08:52:18;;;;;;;;;17.50;15.50;;;;;;;;5098500;27;45470;-75
2023/12/15 08:54:43;;;;;;;;;16.00;13.50;;;;;;;;5098135;27;45792;-75
2023/12/15 08:57:09;;;;;;;;;10.00;10.00;;;;;;;;5098615;27;46139;-75
2023/12/15 08:59:34;;;;;;;;;12.25;11.50;;;;;;;;5098053;27;46165;-75
2023/12/15 09:02:00;;;;;;;;;10.00;9.00;;;;;;;;5086559;27;45342;-74
2023/12/15 09:04:25;;;;;;;;;11.67;10.00;;;;;;;;5077577;28;45522;-73
2023/12/15 09:06:50;;;;;;;;;7.33;7.00;;;;;;;;5077760;28;45327;-74
2023/12/15 09:09:16;;;;;;;;;5.00;5.00;;;;;;;;5077535;28;45407;-73
2023/12/15 09:11:41;;;;;;;;;5.67;4.00;;;;;;;;5076435;27;45271;-73
2023/12/15 09:14:06;;;;;;;;;5.00;5.00;;;;;;;;5077527;28;45282;-74
2023/12/15 09:16:32;;;;;;;;;5.00;5.00;;;;;;;;5077746;28;45316;-75
2023/12/15 09:18:57;;;;;;;;;4.00;4.00;;;;;;;;5076873;28;46143;-70
2023/12/15 09:21:23;;;;;;;;;3.33;3.00;;;;;;;;5077125;28;45413;-70
2023/12/15 09:23:48;;;;;;;;;4.00;4.00;;;;;;;;5077565;28;45464;-73
2023/12/15 09:26:13;;;;;;;;;3.00;2.00;;;;;;;;5077445;28;45447;-70
2023/12/15 09:28:39;;;;;;;;;4.67;4.67;;;;;;;;5077237;28;45715;-74
2023/12/15 09:31:04;;;;;;;;;5.00;3.00;;;;;;;;5077330;28;45423;-71
2023/12/15 09:33:30;;;;;;;;;2.67;2.00;;;;;;;;5077481;28;45454;-70
2023/12/15 09:35:56;;;;;;;;;2.67;2.00;;;;;;;;5059396;28;45439;-71
2023/12/15 09:38:21;;;;;;;;;2.00;2.00;;;;;;;;5076994;28;45573;-71
2023/12/15 09:40:47;;;;;;;;;3.00;3.00;;;;;;;;5076466;27;45433;-73
2023/12/15 09:43:13;;;;;;;;;3.67;3.00;;;;;;;;5076726;28;45306;-73
2023/12/15 09:45:39;;;;;;;;;2.00;2.00;;;;;;;;5076543;28;45538;-72
2023/12/15 09:48:06;;;;;;;;;2.00;2.00;;;;;;;;5076218;27;46124;-71
2023/12/15 09:50:33;;;;;;;;;1.00;1.00;;;;;;;;5076636;28;45412;-74
2023/12/15 09:52:59;;;;;;;;;1.00;1.00;;;;;;;;5081290;27;45437;-73
2023/12/15 09:55:27;;;;;;;;;2.00;1.67;;;;;;;;5096951;27;45447;-73
2023/12/15 09:57:53;;;;;;;;;1.33;1.00;;;;;;;;5096626;27;45595;-71
2023/12/15 10:00:19;;;;;;;;;0.33;0.33;;;;;;;;5096057;27;45501;-72
2023/12/15 10:02:44;;;;;;;;;1.00;0.00;;;;;;;;5095464;27;45423;-71
2023/12/15 10:05:10;;;;;;;;;1.00;0.00;;;;;;;;5096965;27;45271;-73
2023/12/15 10:07:35;;;;;;;;;1.00;0.00;;;;;;;;5093566;27;45363;-73
2023/12/15 10:10:01;;;;;;;;;0.00;0.00;;;;;;;;5095815;27;45411;-74
2023/12/15 10:12:29;;;;;;;;;2.00;1.67;;;;;;;;5095789;27;45291;-74
2023/12/15 10:14:55;;;;;;;;;1.00;1.00;;;;;;;;5096129;27;45491;-72
2023/12/15 10:17:20;;;;;;;;;0.33;0.33;;;;;;;;5096066;27;46103;-71
2023/12/15 10:19:46;;;;;;;;;1.00;1.00;;;;;;;;5096014;27;45555;-70
2023/12/15 10:22:11;;;;;;;;;1.33;1.00;;;;;;;;5096460;27;46068;-74
2023/12/15 10:24:37;;;;;;;;;4.33;3.00;;;;;;;;5099571;27;45352;-72
2023/12/15 10:27:03;;;;;;;;;2.00;1.00;;;;;;;;5099225;27;45371;-73
2023/12/15 10:29:29;;;;;;;;;5.00;4.00;;;;;;;;5099713;27;45559;-72
2023/12/15 10:31:54;;;;;;;;;2.00;2.00;;;;;;;;5099651;27;45500;-73
2023/12/15 10:34:27;;;;;;;;;3.67;3.00;;;;;;;;5100258;27;45511;-73
2023/12/15 10:36:53;;;;;;;;;2.00;1.33;;;;;;;;5097833;27;45347;-73
2023/12/15 10:39:19;;;;;;;;;0.67;0.33;;;;;;;;5099856;27;45291;-73
2023/12/15 10:41:44;;;;;;;;;3.00;2.33;;;;;;;;5099391;27;45475;-74
2023/12/15 10:44:11;;;;;;;;;3.00;3.00;;;;;;;;5099713;27;45416;-71
2023/12/15 10:46:37;;;;;;;;;3.00;3.00;;;;;;;;5099827;27;45982;-71
2023/12/15 10:49:03;;;;;;;;;2.00;2.00;;;;;;;;5099779;27;45640;-70
2023/12/15 10:51:30;;;;;;;;;4.00;2.33;;;;;;;;5099485;27;45518;-72
2023/12/15 10:53:56;;;;;;;;;5.67;4.00;;;;;;;;5099610;27;45310;-70
2023/12/15 10:56:22;;;;;;;;;4.33;4.00;;;;;;;;5099508;27;45441;-70
2023/12/15 10:58:48;;;;;;;;;3.00;2.00;;;;;;;;5099114;27;45391;-73
2023/12/15 11:01:14;;;;;;;;;1.00;1.00;;;;;;;;5098513;27;45343;-73
2023/12/15 11:03:41;;;;;;;;;4.67;4.00;;;;;;;;5100570;27;45507;-71
2023/12/15 11:06:06;;;;;;;;;1.67;1.67;;;;;;;;5099455;27;45519;-71
2023/12/15 11:08:32;;;;;;;;;0.67;0.67;;;;;;;;5099879;27;45232;-72
2023/12/15 11:10:57;;;;;;;;;2.00;2.00;;;;;;;;5100234;27;45435;-71
2023/12/15 11:13:42;;;;;;;;;2.00;2.00;;;;;;;;5100065;27;45490;-71
2023/12/15 11:16:07;;;;;;;;;0.33;0.33;;;;;;;;5099811;27;46291;-71
2023/12/15 11:18:34;;;;;;;;;1.00;1.00;;;;;;;;5099661;27;45466;-69
2023/12/15 11:21:00;;;;;;;;;2.00;1.00;;;;;;;;5099945;27;45479;-72
2023/12/15 11:23:26;;;;;;;;;1.00;1.00;;;;;;;;5098945;27;45377;-72
2023/12/15 11:25:52;;;;;;;;;2.00;2.00;;;;;;;;5100003;27;45985;-71
2023/12/15 11:28:18;;;;;;;;;1.00;1.00;;;;;;;;5098244;27;45344;-72
2023/12/15 11:30:52;;;;;;;;;2.00;2.00;;;;;;;;5099149;27;45508;-70
2023/12/15 11:33:23;;;;;;;;;1.00;1.00;;;;;;;;5098261;27;45471;-70
2023/12/15 11:35:59;;;;;;;;;1.00;1.00;;;;;;;;5099054;27;45388;-72
2023/12/15 11:38:24;;;;;;;;;1.00;1.00;;;;;;;;5099697;27;45420;-71
2023/12/15 11:40:50;;;;;;;;;3.00;2.00;;;;;;;;5099331;27;45341;-70
2023/12/15 11:43:16;;;;;;;;;1.00;0.00;;;;;;;;5099437;27;45420;-71
2023/12/15 11:45:41;;;;;;;;;1.33;0.67;;;;;;;;5098966;27;45553;-70
2023/12/15 11:48:09;;;;;;;;;2.67;1.00;;;;;;;;5099072;27;45523;-70
2023/12/15 11:50:34;;;;;;;;;4.00;3.00;;;;;;;;5099341;27;45424;-70
2023/12/15 11:53:05;;;;;;;;;1.33;1.00;;;;;;;;5099528;27;45325;-70
2023/12/15 11:55:30;;;;;;;;;3.67;2.00;;;;;;;;5099298;27;46195;-70
2023/12/15 11:57:55;;;;;;;;;1.00;1.00;;;;;;;;5099305;27;45459;-71
2023/12/15 12:00:21;;;;;;;;;0.00;0.00;;;;;;;;5099368;27;45345;-71
2023/12/15 12:02:48;;;;;;;;;1.33;1.00;;;;;;;;5099444;27;45515;-71
2023/12/15 12:05:14;;;;;;;;;3.00;2.00;;;;;;;;5099098;27;45411;-71
2023/12/15 12:07:39;;;;;;;;;0.00;0.00;;;;;;;;5098900;27;45463;-71
2023/12/15 12:10:05;;;;;;;;;0.67;0.00;;;;;;;;5099004;27;45469;-71
2023/12/15 12:12:31;;;;;;;;;1.33;1.00;;;;;;;;5099176;27;45236;-71
2023/12/15 12:15:01;;;;;;;;;1.00;1.00;;;;;;;;5099157;27;45245;-71
2023/12/15 12:17:27;;;;;;;;;2.00;2.00;;;;;;;;5099171;27;45471;-70
2023/12/15 12:19:52;;;;;;;;;0.00;0.00;;;;;;;;5099038;27;45223;-71
2023/12/15 12:22:18;;;;;;;;;0.67;0.67;;;;;;;;5099086;27;45514;-70
2023/12/15 12:24:43;;;;;;;;;2.00;2.00;;;;;;;;5098737;27;45413;-72
2023/12/15 12:27:09;;;;;;;;;0.00;0.00;;;;;;;;5098653;27;45382;-71
2023/12/15 12:29:39;;;;;;;;;1.00;1.00;;;;;;;;5098994;27;45150;-70
2023/12/15 12:32:05;;;;;;;;;0.00;0.00;;;;;;;;5099177;27;45457;-71
2023/12/15 12:34:30;;;;;;;;;1.00;1.00;;;;;;;;5098346;27;45412;-71
2023/12/15 12:36:56;;;;;;;;;1.33;1.00;;;;;;;;5098674;27;45426;-71
2023/12/15 12:39:23;;;;;;;;;1.67;0.00;;;;;;;;5098425;27;45270;-71
2023/12/15 12:41:48;;;;;;;;;4.00;3.00;;;;;;;;5098555;27;45375;-70
2023/12/15 12:44:13;;;;;;;;;2.33;1.67;;;;;;;;5097882;27;45969;-71
2023/12/15 12:46:39;;;;;;;;;2.00;1.00;;;;;;;;5098357;27;45273;-70
2023/12/15 12:49:04;;;;;;;;;1.67;1.67;;;;;;;;5098401;27;45609;-71
2023/12/15 12:51:29;;;;;;;;;3.00;2.00;;;;;;;;5098774;27;45383;-71
2023/12/15 12:53:55;;;;;;;;;2.00;1.00;;;;;;;;5098255;27;45934;-71
2023/12/15 12:56:21;;;;;;;;;2.00;2.00;;;;;;;;5098212;27;45550;-70
2023/12/15 12:58:46;;;;;;;;;1.00;1.00;;;;;;;;5098333;27;45489;-71
2023/12/15 13:01:12;;;;;;;;;0.67;0.67;;;;;;;;5089769;27;45232;-72
2023/12/15 13:03:38;;;;;;;;;1.67;1.67;;;;;;;;5077166;28;46169;-70
2023/12/15 13:06:04;;;;;;;;;6.67;4.33;;;;;;;;5076948;27;45478;-71
2023/12/15 13:08:30;;;;;;;;;4.00;4.00;;;;;;;;5077122;27;45357;-73
2023/12/15 13:10:55;;;;;;;;;3.00;3.00;;;;;;;;5076962;28;45546;-71
2023/12/15 13:13:22;;;;;;;;;3.00;3.00;;;;;;;;5076703;28;45504;-69
2023/12/15 13:15:47;;;;;;;;;1.67;1.67;;;;;;;;5077165;28;45457;-70
2023/12/15 13:18:13;;;;;;;;;2.00;1.00;;;;;;;;5077464;28;45268;-71
2023/12/15 13:20:39;;;;;;;;;1.67;1.00;;;;;;;;5077424;27;45520;-68
2023/12/15 13:23:05;;;;;;;;;3.00;1.33;;;;;;;;5077448;28;45366;-72
2023/12/15 13:25:30;;;;;;;;;2.67;2.33;;;;;;;;5077453;28;45389;-73
2023/12/15 13:27:56;;;;;;;;;3.00;3.00;;;;;;;;5077577;28;45303;-72
2023/12/15 13:30:21;;;;;;;;;3.00;2.00;;;;;;;;5077483;28;45292;-73
2023/12/15 13:32:47;;;;;;;;;1.33;1.00;;;;;;;;5076535;28;45848;-72
2023/12/15 13:35:14;;;;;;;;;2.33;1.00;;;;;;;;5076442;28;46113;-71
2023/12/15 13:37:40;;;;;;;;;3.67;2.00;;;;;;;;5076558;28;45563;-72
2023/12/15 13:40:05;;;;;;;;;2.67;1.67;;;;;;;;5076214;28;45552;-72
2023/12/15 13:42:31;;;;;;;;;2.00;1.00;;;;;;;;5076615;28;45573;-71
2023/12/15 13:44:56;;;;;;;;;4.00;2.00;;;;;;;;5076898;28;45491;-70
2023/12/15 13:47:22;;;;;;;;;3.00;3.00;;;;;;;;5077266;28;45319;-72
2023/12/15 13:49:48;;;;;;;;;2.00;2.00;;;;;;;;5077354;28;45319;-71
2023/12/15 13:52:13;;;;;;;;;2.67;2.00;;;;;;;;5076785;27;45307;-71
2023/12/15 13:54:39;;;;;;;;;3.00;1.33;;;;;;;;5096013;27;45307;-72
2023/12/15 13:57:04;;;;;;;;;2.00;1.00;;;;;;;;5099003;27;45467;-73
2023/12/15 13:59:32;;;;;;;;;2.00;2.00;;;;;;;;5101427;27;45356;-71
2023/12/15 14:01:58;;;;;;;;;1.67;1.67;;;;;;;;5100771;27;46563;-71
2023/12/15 14:04:23;;;;;;;;;4.00;2.00;;;;;;;;5100829;27;45349;-72
2023/12/15 14:06:50;;;;;;;;;1.00;1.00;;;;;;;;5101024;27;45496;-71
2023/12/15 14:09:16;;;;;;;;;1.67;1.33;;;;;;;;5100673;27;45432;-70
2023/12/15 14:11:42;;;;;;;;;4.00;2.00;;;;;;;;5100629;27;46246;-70
2023/12/15 14:14:08;;;;;;;;;2.33;2.00;;;;;;;;5099835;27;45534;-73
2023/12/15 14:16:34;;;;;;;;;3.00;3.00;;;;;;;;5099870;27;45545;-70
2023/12/15 14:18:59;;;;;;;;;1.67;1.67;;;;;;;;5099318;27;45357;-71
2023/12/15 14:21:24;;;;;;;;;1.00;1.00;;;;;;;;5099085;27;46105;-71
2023/12/15 14:23:50;;;;;;;;;3.00;3.00;;;;;;;;5099011;27;45377;-71
2023/12/15 14:26:15;;;;;;;;;3.00;2.33;;;;;;;;5099594;27;45573;-71
2023/12/15 14:28:41;;;;;;;;;2.67;2.67;;;;;;;;5099518;27;45460;-70
2023/12/15 14:31:06;;;;;;;;;3.00;2.00;;;;;;;;5098571;27;46129;-70